• Join FlightAware (Why Join?)
  • Login
  • US Flag 
06:02AM EDT


 

Airport Tracker/Info


-or-


 

Live Flight TrackerFlight Track Log ✈ ASQ4537 ✈ 30-Jun-2013 ✈ KORD - KCLE

Flight Track Log - Related Links

Times and Time Zones

All times are in EDT time to prevent confusion due to time zone crossing. See the ASQ4537 flight status page for this flight to view local times or setup timezone preferences in your user account.

Time Position Orientation Groundspeed Altitude Reporting Facility
EDT Latitude Longitude Course Direction KTS MPH feet Rate Location/Type
06:14PM 42.0000 -87.8333 77° East 202 232 3,500  Level Chicago TRACON
06:16PM 42.0111 -87.7119 83° East 239 275 6,700 2,400 Climbing Chicago Center
06:17PM 42.0258 -87.6175 78° East 258 297 9,500 2,220 Climbing Chicago Center
06:18PM 42.0456 -87.4947 78° East 275 316 11,400 1,440 Climbing Chicago Center
06:19PM 42.0647 -87.3678 78° East 331 381 12,500 1,380 Climbing Chicago Center
06:20PM 42.0843 -87.1440 77° East  Level FlightAware Approximate
06:20PM 42.0847 -87.2364 78° East 355 409 14,300  Level Chicago Center
06:21PM 42.1053 -87.1047 78° East 360 414 16,200 1,860 Climbing Chicago Center
06:22PM 42.1147 -86.9711 85° East 361 415 18,200 2,040 Climbing Chicago Center
06:23PM 42.1203 -86.8117 87° East 356 410 20,500 1,320 Climbing Chicago Center
06:24PM 42.1267 -86.6764 86° East 363 418 21,000 240 Climbing Chicago Center
06:25PM 42.1311 -86.5108 88° East 413 475 21,000  Level Chicago Center
06:26PM 42.1369 -86.3475 87° East 433 498 21,000  Level Chicago Center
06:27PM 42.1419 -86.1850 88° East 434 499 21,000  Level Chicago Center
06:28PM 42.1417 -86.0236 90° East 432 497 21,000  Level Chicago Center
06:29PM 42.1369 -85.8461 92° East 426 490 21,000  Level Chicago Center
06:30PM 42.1322 -85.6872 92° East 428 493 21,000  Level Chicago Center
06:32PM 42.1261 -85.4414 92° East 432 497 21,000  Level Cleveland Center
06:33PM 42.1225 -85.2786 92° East 432 497 21,000  Level Cleveland Center
06:34PM 42.1161 -85.1214 93° East 427 491 21,000  Level Cleveland Center
06:34PM 42.1128 -85.0181 92° East 431 496 21,000  Level Chicago Center
06:35PM 42.1072 -84.8569 93° East 431 496 21,000  Level Chicago Center
06:36PM 42.1006 -84.6975 93° East 430 495 21,000  Level Chicago Center
06:37PM 42.0950 -84.5356 93° East 433 498 21,000  Level Chicago Center
06:38PM 42.0889 -84.3753 93° East 432 497 21,000  Level Chicago Center
06:39PM 42.0811 -84.2139 94° East 433 498 21,000  Level Chicago Center
06:41PM 42.0703 -83.9736 93° East 427 491 21,000  Level Cleveland Center
06:42PM 42.0625 -83.8164 94° East 427 491 21,000  Level Cleveland Center
06:43PM 42.0558 -83.6736 94° East 403 464 21,000  Level Cleveland Center
06:44PM 42.0492 -83.5333 94° East 387 445 21,000  Level Cleveland Center
06:45PM 42.0381 -83.3903 96° East 378 435 21,000  Level Cleveland Center
06:46PM 42.0269 -83.2472 96° East 378 435 21,000  Level Cleveland Center
06:47PM 42.0133 -83.1181 98° East 383 441 21,000  Level Cleveland Center
06:48PM 41.9997 -82.9750 97° East 388 447 21,000 -600 Level Cleveland Center
06:49PM 41.9858 -82.8319 97° East 388 447 19,800 -2,040 Descending Cleveland Center
06:50PM 41.9700 -82.6806 98° East 400 460 17,000 -2,700 Descending Cleveland Center
06:51PM 41.9517 -82.5403 100° East 397 457 14,600 -2,340 Descending Cleveland Center
06:52PM 41.9100 -82.4022 112° Southeast 393 452 12,400 -1,920 Descending Cleveland Center
06:53PM 41.8703 -82.2728 112° Southeast 381 438 10,700 -1,200 Descending Cleveland Center
06:54PM 41.8242 -82.1547 118° Southeast 369 425 10,100 -360 Descending Cleveland Center
06:55PM 41.7314 -82.0744 147° Southeast 362 417 10,100 -360 Level Cleveland Center
06:56PM 41.6633 -82.0172 148° Southeast 294 338 9,500 -1,200 Descending Cleveland Center
06:57PM 41.6056 -81.9689 148° Southeast 279 321 8,000 -1,200 Descending Cleveland Center
06:58PM 41.5231 -81.9033 149° Southeast 280 322 7,000 -600 Descending Cleveland Center
06:59PM 41.4581 -81.9131 186° South 235 270 6,800 -780 Descending Cleveland Center
07:00PM 41.4261 -81.9789 237° Southwest 198 228 5,500 -1,560 Descending Cleveland Center
07:01PM 41.3878 -82.0417 231° Southwest 221 254 3,700 -1,380 Descending Cleveland Center
07:02PM 41.3467 -81.9964 140° Southeast 186 214 2,700 -1,020 Descending Cleveland Center